Terminal Aerodrome Forecast
Issued by NWS

Home | Current Version | Previous Version | Text Only | Print | Product List | Glossary On
Versions: 1 2 3 4 5 6 7 8 9 10 11 12 13 14 15 16 17 18 19 20 21 22 23 24 25 26 27 28 29 30 31 32 33 34
000
FTUS45 KGJT 292321
TAFASE
TAF
KASE 292321Z 3000/3024 33008KT P6SM FEW100
     FM300200 19008KT P6SM SCT100 SCT200
     FM300600 20007KT P6SM SKC
     FM301200 VRB04KT P6SM FEW110 FEW200
     FM301800 33006KT P6SM SCT110 SCT200
     FM302100 29012KT P6SM VCTS SCT050CB BKN150=

USA.gov is the U.S. government's official web portal to all federal, state and local government web resources and services.